createdAt,value
2023-01-09T00:01:53.544Z,6.53
2023-01-09T00:04:41.407Z,6.17
2023-01-09T00:07:27.935Z,7.50
2023-01-09T00:10:15.538Z,5.80
2023-01-09T00:13:01.916Z,6.30
2023-01-09T00:15:49.037Z,6.50
2023-01-09T00:18:35.625Z,6.77
2023-01-09T00:21:23.578Z,5.67
2023-01-09T00:24:10.922Z,6.27
2023-01-09T00:26:57.429Z,4.23
2023-01-09T00:29:45.922Z,6.47
2023-01-09T00:32:32.050Z,7.80
2023-01-09T00:35:19.290Z,6.90
2023-01-09T00:38:06.897Z,5.17
2023-01-09T00:40:54.024Z,6.10
2023-01-09T00:43:42.778Z,5.40
2023-01-09T00:46:30.869Z,5.63
2023-01-09T00:49:18.324Z,8.23
2023-01-09T00:52:05.186Z,5.67
2023-01-09T00:54:53.078Z,5.90
2023-01-09T00:57:39.410Z,5.60
2023-01-09T01:00:25.512Z,6.33
2023-01-09T01:03:11.953Z,5.10
2023-01-09T01:06:15.690Z,5.97
2023-01-09T01:09:02.153Z,5.03
2023-01-09T01:11:49.744Z,6.47
2023-01-09T01:14:36.247Z,5.27
2023-01-09T01:17:22.604Z,5.27
2023-01-09T01:20:10.646Z,4.80
2023-01-09T01:22:57.182Z,4.70
2023-01-09T01:25:43.857Z,4.67
2023-01-09T01:28:31.390Z,4.10
2023-01-09T01:31:19.065Z,4.43
2023-01-09T01:34:05.307Z,4.00
2023-01-09T01:36:51.437Z,5.87
2023-01-09T01:39:37.857Z,4.30
2023-01-09T01:42:24.591Z,6.30
2023-01-09T01:45:14.853Z,4.43
2023-01-09T01:48:03.347Z,5.60
2023-01-09T01:50:53.030Z,4.93
2023-01-09T01:53:40.882Z,4.10
2023-01-09T01:56:29.956Z,5.57
2023-01-09T01:59:18.815Z,4.67
2023-01-09T02:02:06.587Z,4.57
2023-01-09T02:04:54.445Z,3.70
2023-01-09T02:07:40.945Z,3.57
2023-01-09T02:10:27.815Z,4.47
2023-01-09T02:13:14.522Z,4.83
2023-01-09T02:16:08.645Z,4.27
2023-01-09T02:18:59.791Z,5.57
2023-01-09T02:21:51.208Z,4.30
2023-01-09T02:24:58.304Z,4.03
2023-01-09T02:28:00.131Z,3.23
2023-01-09T02:30:50.217Z,4.07
2023-01-09T02:33:45.625Z,3.50
2023-01-09T02:36:33.035Z,3.37
2023-01-09T02:39:24.419Z,4.93
2023-01-09T02:42:14.675Z,3.87
2023-01-09T02:45:00.969Z,4.60
2023-01-09T02:47:48.947Z,3.37
2023-01-09T02:50:38.193Z,3.50
2023-01-09T02:53:37.986Z,4.00
2023-01-09T02:56:29.863Z,3.33
2023-01-09T02:59:24.763Z,4.33
2023-01-09T03:02:19.342Z,5.03
2023-01-09T03:05:09.975Z,4.83
2023-01-09T03:07:59.872Z,4.63
2023-01-09T03:10:49.416Z,5.13
2023-01-09T03:13:38.823Z,5.23
2023-01-09T03:16:26.455Z,6.17
2023-01-09T03:19:16.982Z,5.63
2023-01-09T03:22:04.838Z,5.23
2023-01-09T03:24:51.226Z,7.03
2023-01-09T03:27:37.578Z,5.97
2023-01-09T03:30:23.923Z,6.67
2023-01-09T03:33:10.533Z,6.37
2023-01-09T03:35:57.033Z,4.70
2023-01-09T03:38:44.811Z,4.17
2023-01-09T03:41:31.101Z,6.20
2023-01-09T03:44:17.266Z,6.10
2023-01-09T03:47:03.300Z,4.80
2023-01-09T03:49:49.958Z,5.67
2023-01-09T03:52:36.857Z,5.60
2023-01-09T03:55:24.540Z,3.90
2023-01-09T03:58:11.167Z,4.60
2023-01-09T04:01:01.541Z,5.43
2023-01-09T04:03:48.256Z,4.53
2023-01-09T04:06:34.828Z,5.77
2023-01-09T04:09:20.948Z,3.60
2023-01-09T04:12:09.016Z,3.73
2023-01-09T04:14:55.448Z,4.27
2023-01-09T04:17:41.698Z,4.63
2023-01-09T04:20:28.744Z,5.23
2023-01-09T04:23:15.220Z,3.83
2023-01-09T04:26:01.439Z,5.47
2023-01-09T04:28:49.278Z,5.57
2023-01-09T04:31:35.800Z,3.57
2023-01-09T04:34:25.533Z,3.10
2023-01-09T04:37:11.766Z,6.03
2023-01-09T04:39:58.488Z,4.30
2023-01-09T04:42:44.790Z,3.30
2023-01-09T04:45:32.575Z,3.97
2023-01-09T04:48:19.231Z,3.63
2023-01-09T04:51:05.906Z,5.33
2023-01-09T04:53:52.190Z,6.23
2023-01-09T04:56:38.876Z,5.43
2023-01-09T04:59:25.273Z,3.33
2023-01-09T05:02:12.925Z,3.23
2023-01-09T05:04:59.425Z,4.93
2023-01-09T05:07:45.599Z,4.77
2023-01-09T05:10:31.968Z,4.20
2023-01-09T05:13:18.047Z,4.00
2023-01-09T05:16:04.335Z,4.67
2023-01-09T05:18:56.627Z,6.90
2023-01-09T05:21:43.030Z,4.83
2023-01-09T05:24:29.426Z,3.50
2023-01-09T05:27:15.999Z,2.53
2023-01-09T05:30:02.358Z,2.97
2023-01-09T05:32:49.063Z,5.30
2023-01-09T05:35:36.733Z,4.27
2023-01-09T05:38:23.398Z,4.10
2023-01-09T05:41:10.308Z,4.00
2023-01-09T05:43:56.765Z,4.13
2023-01-09T05:46:43.247Z,5.83
2023-01-09T05:49:29.718Z,4.40
2023-01-09T05:52:17.433Z,4.30
2023-01-09T05:55:03.949Z,4.93
2023-01-09T05:57:50.342Z,6.00
2023-01-09T06:00:36.416Z,5.37
2023-01-09T06:03:22.566Z,4.40
2023-01-09T06:06:09.032Z,7.73
2023-01-09T06:08:56.540Z,4.20
2023-01-09T06:11:43.098Z,5.37
2023-01-09T06:14:29.854Z,4.43
2023-01-09T06:17:16.063Z,5.53
2023-01-09T06:20:02.488Z,4.50
2023-01-09T06:22:52.030Z,4.33
2023-01-09T06:25:40.094Z,4.43
2023-01-09T06:28:26.634Z,4.97
2023-01-09T06:31:13.348Z,5.50
2023-01-09T06:33:59.629Z,6.33
2023-01-09T06:36:46.356Z,5.50
2023-01-09T06:39:32.784Z,5.37
2023-01-09T06:42:20.768Z,4.50
2023-01-09T06:45:08.031Z,5.27
2023-01-09T06:47:54.110Z,6.53
2023-01-09T06:50:40.350Z,3.60
2023-01-09T06:53:26.511Z,4.63
2023-01-09T06:56:13.005Z,4.40
2023-01-09T06:59:01.343Z,5.77
2023-01-09T07:01:47.810Z,7.27
2023-01-09T07:04:34.490Z,6.67
2023-01-09T07:07:22.424Z,5.07
2023-01-09T07:10:09.853Z,6.77
2023-01-09T07:12:56.314Z,5.63
2023-01-09T07:15:43.997Z,5.03
2023-01-09T07:18:30.591Z,5.43
2023-01-09T07:21:17.642Z,5.77
2023-01-09T07:24:04.506Z,6.83
2023-01-09T07:26:50.566Z,5.50
2023-01-09T07:29:37.293Z,5.80
2023-01-09T07:32:24.832Z,6.93
2023-01-09T07:35:11.415Z,11.50
2023-01-09T07:37:57.642Z,8.70
2023-01-09T07:40:43.825Z,5.03
2023-01-09T07:43:30.280Z,5.40
2023-01-09T07:46:16.577Z,5.87
2023-01-09T07:49:04.330Z,7.47
2023-01-09T07:51:50.638Z,8.47
2023-01-09T07:54:37.017Z,9.50
2023-01-09T07:57:23.286Z,8.87
2023-01-09T08:00:11.246Z,10.53
2023-01-09T08:02:57.470Z,11.87
2023-01-09T08:05:45.281Z,12.03
2023-01-09T08:08:31.781Z,9.07
2023-01-09T08:11:18.349Z,12.53
2023-01-09T08:14:04.668Z,8.97
2023-01-09T08:16:50.862Z,10.37
2023-01-09T08:19:37.448Z,8.53
2023-01-09T08:22:25.021Z,10.07
2023-01-09T08:25:13.167Z,10.20
2023-01-09T08:27:59.500Z,9.27
2023-01-09T08:30:48.127Z,7.70
2023-01-09T08:33:34.559Z,12.03
2023-01-09T08:36:21.016Z,8.87
2023-01-09T08:39:08.807Z,7.83
2023-01-09T08:42:12.679Z,7.80
2023-01-09T08:45:16.544Z,8.30
2023-01-09T08:48:02.820Z,8.67
2023-01-09T08:50:49.271Z,7.90
2023-01-09T08:53:35.426Z,6.23
2023-01-09T08:56:23.317Z,4.87
2023-01-09T08:59:10.957Z,6.30
2023-01-09T09:01:57.375Z,8.03
2023-01-09T09:04:44.036Z,4.80
2023-01-09T09:07:30.133Z,4.80
2023-01-09T09:10:16.781Z,8.10
2023-01-09T09:13:04.140Z,6.00
2023-01-09T09:15:50.680Z,1.90
2023-01-09T09:18:37.051Z,1.67
2023-01-09T09:21:23.356Z,4.00
2023-01-09T09:24:10.032Z,3.63
2023-01-09T09:26:56.193Z,2.90
2023-01-09T09:29:43.793Z,2.57
2023-01-09T09:32:30.364Z,2.83
2023-01-09T09:35:17.851Z,1.43
2023-01-09T09:38:05.811Z,2.40
2023-01-09T09:41:07.530Z,2.30
2023-01-09T09:44:19.721Z,2.27
2023-01-09T09:47:11.508Z,2.17
2023-01-09T09:50:03.732Z,3.53
2023-01-09T09:52:51.679Z,2.07
2023-01-09T09:55:40.099Z,2.80
2023-01-09T09:58:38.042Z,2.23
2023-01-09T10:01:26.655Z,2.40
2023-01-09T10:04:16.390Z,1.47
2023-01-09T10:07:06.234Z,2.67
2023-01-09T10:09:55.379Z,2.03
2023-01-09T10:12:45.581Z,2.10
2023-01-09T10:15:38.390Z,1.67
2023-01-09T10:18:30.904Z,2.10
2023-01-09T10:21:20.324Z,2.67
2023-01-09T10:24:22.233Z,2.40
2023-01-09T10:27:16.210Z,3.20
2023-01-09T10:30:08.306Z,1.50
2023-01-09T10:33:01.285Z,1.90
2023-01-09T10:35:55.386Z,2.23
2023-01-09T10:38:44.801Z,2.10
2023-01-09T10:41:34.750Z,2.13
2023-01-09T10:44:23.698Z,2.20
2023-01-09T10:47:12.459Z,2.60
2023-01-09T10:50:00.155Z,2.33
2023-01-09T10:52:46.938Z,3.17
2023-01-09T10:55:38.694Z,2.37
2023-01-09T10:58:26.000Z,2.03
2023-01-09T11:01:12.704Z,2.07
2023-01-09T11:03:59.232Z,2.90
2023-01-09T11:06:47.478Z,2.73
2023-01-09T11:09:48.807Z,2.57
2023-01-09T11:12:37.299Z,3.33
2023-01-09T11:15:30.859Z,2.37
2023-01-09T11:18:19.055Z,3.20
2023-01-09T11:21:27.600Z,2.40
2023-01-09T11:24:28.936Z,2.80
2023-01-09T11:27:25.905Z,3.10
2023-01-09T11:30:20.102Z,2.90
2023-01-09T11:33:14.639Z,2.20
2023-01-09T11:36:03.327Z,2.43
2023-01-09T11:38:50.786Z,2.70
2023-01-09T11:41:37.125Z,3.13
2023-01-09T11:44:23.297Z,3.37
2023-01-09T11:47:25.262Z,3.67
2023-01-09T11:50:22.013Z,2.43
2023-01-09T11:53:16.313Z,2.23
2023-01-09T11:56:03.733Z,2.47
2023-01-09T11:58:50.035Z,2.17
2023-01-09T12:01:49.018Z,2.97
2023-01-09T12:04:40.669Z,2.23
2023-01-09T12:07:42.027Z,3.87
2023-01-09T12:10:37.010Z,3.83
2023-01-09T12:13:31.469Z,3.03
2023-01-09T12:16:23.477Z,4.00
2023-01-09T12:19:22.530Z,4.00
2023-01-09T12:22:17.124Z,2.53
2023-01-09T12:25:18.928Z,3.10
2023-01-09T12:28:12.305Z,3.67
2023-01-09T12:31:03.300Z,4.47
2023-01-09T12:33:55.797Z,3.27
2023-01-09T12:36:47.292Z,3.80
2023-01-09T12:39:39.579Z,4.03
2023-01-09T12:42:33.422Z,3.57
2023-01-09T12:45:30.513Z,3.40
2023-01-09T12:48:24.776Z,1.80
2023-01-09T12:51:17.858Z,3.70
2023-01-09T12:54:06.848Z,3.30
2023-01-09T12:56:57.080Z,2.70
2023-01-09T12:59:45.947Z,4.13
2023-01-09T13:02:35.362Z,4.27
2023-01-09T13:05:23.405Z,2.90
2023-01-09T13:08:13.166Z,3.60
2023-01-09T13:11:19.003Z,3.90
2023-01-09T13:14:12.716Z,4.97
2023-01-09T13:16:59.981Z,4.90
2023-01-09T13:19:46.333Z,2.60
2023-01-09T13:22:32.703Z,4.00
2023-01-09T13:25:32.362Z,4.30
2023-01-09T13:28:20.011Z,3.70
2023-01-09T13:31:15.432Z,2.53
2023-01-09T13:34:04.592Z,3.83
2023-01-09T13:36:54.944Z,2.80
2023-01-09T13:39:41.491Z,4.17
2023-01-09T13:42:39.183Z,3.67
2023-01-09T13:45:26.238Z,2.53
2023-01-09T13:48:26.315Z,3.60
2023-01-09T13:51:31.174Z,3.27
2023-01-09T13:54:40.750Z,4.27
2023-01-09T13:57:28.761Z,3.20
2023-01-09T14:00:33.658Z,2.87
2023-01-09T14:03:22.866Z,1.93
2023-01-09T14:06:14.143Z,3.20
2023-01-09T14:09:21.393Z,3.87
2023-01-09T14:12:08.110Z,2.37
2023-01-09T14:14:56.643Z,4.17
2023-01-09T14:17:43.267Z,3.37
2023-01-09T14:20:34.018Z,3.83
2023-01-09T14:23:42.196Z,3.03
2023-01-09T14:26:43.457Z,3.97
2023-01-09T14:29:48.801Z,2.90
2023-01-09T14:32:39.486Z,7.50
2023-01-09T14:35:33.807Z,3.53
2023-01-09T14:38:31.074Z,4.10
2023-01-09T14:41:42.119Z,5.00
2023-01-09T14:44:30.104Z,6.43
2023-01-09T14:47:18.706Z,3.93
2023-01-09T14:50:07.316Z,5.27
2023-01-09T14:52:58.000Z,5.07
2023-01-09T14:55:51.034Z,4.67
2023-01-09T14:58:37.745Z,4.30
2023-01-09T15:01:25.596Z,3.40
2023-01-09T15:04:21.520Z,4.07
2023-01-09T15:07:07.959Z,3.67
2023-01-09T15:09:55.946Z,3.67
2023-01-09T15:12:42.485Z,4.30
2023-01-09T15:15:28.889Z,4.17
2023-01-09T15:18:20.107Z,3.40
2023-01-09T15:21:06.822Z,3.70
2023-01-09T15:23:53.409Z,4.70
2023-01-09T15:26:41.293Z,4.37
2023-01-09T15:29:31.066Z,4.83
2023-01-09T15:32:19.153Z,4.83
2023-01-09T15:35:06.274Z,5.20
2023-01-09T15:37:54.762Z,6.77
2023-01-09T15:40:40.908Z,6.90
2023-01-09T15:43:30.211Z,4.97
2023-01-09T15:46:16.972Z,5.00
2023-01-09T15:49:03.504Z,4.97
2023-01-09T15:51:50.126Z,5.67
2023-01-09T15:54:36.328Z,4.47
2023-01-09T15:57:29.245Z,4.63
2023-01-09T16:00:34.631Z,4.93
2023-01-09T16:03:22.789Z,5.27
2023-01-09T16:06:10.593Z,3.33
2023-01-09T16:08:57.996Z,5.57
2023-01-09T16:11:48.007Z,4.57
2023-01-09T16:14:36.089Z,6.60
2023-01-09T16:17:26.681Z,5.40
2023-01-09T16:20:14.549Z,4.93
2023-01-09T16:23:02.787Z,5.40
2023-01-09T16:25:49.169Z,5.33
2023-01-09T16:28:35.100Z,4.63
2023-01-09T16:31:23.909Z,5.83
2023-01-09T16:34:13.557Z,8.63
2023-01-09T16:36:59.919Z,7.73
2023-01-09T16:40:05.798Z,8.83
2023-01-09T16:43:01.669Z,5.07
2023-01-09T16:45:48.344Z,5.37
2023-01-09T16:48:35.096Z,3.60
2023-01-09T16:51:23.889Z,4.60
2023-01-09T16:54:10.208Z,4.77
2023-01-09T16:56:56.552Z,5.10
2023-01-09T16:59:43.682Z,4.20
2023-01-09T17:02:30.005Z,4.30
2023-01-09T17:05:16.665Z,5.53
2023-01-09T17:08:04.480Z,4.73
2023-01-09T17:10:51.049Z,4.47
2023-01-09T17:13:37.204Z,4.30
2023-01-09T17:16:23.458Z,4.63
2023-01-09T17:19:13.433Z,5.07
2023-01-09T17:21:59.902Z,3.43
2023-01-09T17:25:07.448Z,4.70
2023-01-09T17:28:12.628Z,4.03
2023-01-09T17:31:01.437Z,6.03
2023-01-09T17:33:47.975Z,4.33
2023-01-09T17:36:35.150Z,4.40
2023-01-09T17:39:21.816Z,4.00
2023-01-09T17:42:09.316Z,6.30
2023-01-09T17:44:56.854Z,5.67
2023-01-09T17:47:43.224Z,4.03
2023-01-09T17:50:33.653Z,4.17
2023-01-09T17:53:20.784Z,5.20
2023-01-09T17:56:07.591Z,3.20
2023-01-09T17:58:55.297Z,3.50
2023-01-09T18:01:42.270Z,4.00
2023-01-09T18:04:28.634Z,4.33
2023-01-09T18:07:15.496Z,2.67
2023-01-09T18:10:02.011Z,5.43
2023-01-09T18:12:49.036Z,4.03
2023-01-09T18:15:39.622Z,4.53
2023-01-09T18:18:26.320Z,5.17
2023-01-09T18:21:15.777Z,3.50
2023-01-09T18:24:05.407Z,5.63
2023-01-09T18:26:52.252Z,3.70
2023-01-09T18:29:39.332Z,7.47
2023-01-09T18:32:27.428Z,5.10
2023-01-09T18:35:13.893Z,6.10
2023-01-09T18:38:00.220Z,3.97
2023-01-09T18:40:46.896Z,6.20
2023-01-09T18:43:33.404Z,4.27
2023-01-09T18:46:24.250Z,4.03
2023-01-09T18:49:12.448Z,4.60
2023-01-09T18:51:58.823Z,5.57
2023-01-09T18:54:45.528Z,4.67
2023-01-09T18:57:31.734Z,4.67
2023-01-09T19:00:18.318Z,5.47
2023-01-09T19:03:04.725Z,5.20
2023-01-09T19:05:52.386Z,4.33
2023-01-09T19:08:38.744Z,5.20
2023-01-09T19:11:25.024Z,3.60
2023-01-09T19:14:11.645Z,2.97
2023-01-09T19:16:59.454Z,1.47
2023-01-09T19:19:46.216Z,2.47
2023-01-09T19:22:33.825Z,3.80
2023-01-09T19:25:20.223Z,3.97
2023-01-09T19:28:06.508Z,4.23
2023-01-09T19:30:56.523Z,5.70
2023-01-09T19:33:43.381Z,5.40
2023-01-09T19:36:31.547Z,4.50
2023-01-09T19:39:23.914Z,5.33
2023-01-09T19:42:12.780Z,5.17
2023-01-09T19:44:59.994Z,4.47
2023-01-09T19:47:48.902Z,4.30
2023-01-09T19:50:37.124Z,6.27
2023-01-09T19:53:25.442Z,5.87
2023-01-09T19:56:14.277Z,6.07
2023-01-09T19:59:05.322Z,4.77
2023-01-09T20:01:55.394Z,5.20
2023-01-09T20:04:42.037Z,6.60
2023-01-09T20:07:28.448Z,5.77
2023-01-09T20:10:14.656Z,5.03
2023-01-09T20:13:02.339Z,7.20
2023-01-09T20:15:50.318Z,5.80
2023-01-09T20:18:43.540Z,7.40
2023-01-09T20:21:31.397Z,6.37
2023-01-09T20:24:18.661Z,6.73
2023-01-09T20:27:05.529Z,6.23
2023-01-09T20:29:53.217Z,5.57
2023-01-09T20:32:39.502Z,7.40
2023-01-09T20:35:25.904Z,4.17
2023-01-09T20:38:12.814Z,4.27
2023-01-09T20:40:59.250Z,4.20
2023-01-09T20:43:45.294Z,4.57
2023-01-09T20:46:34.846Z,4.10
2023-01-09T20:49:21.660Z,4.37
2023-01-09T20:52:07.943Z,4.00
2023-01-09T20:54:54.806Z,3.83
2023-01-09T20:57:41.279Z,3.47
2023-01-09T21:00:31.651Z,5.83
2023-01-09T21:03:19.662Z,2.40
2023-01-09T21:06:07.058Z,5.10
2023-01-09T21:08:54.089Z,4.20
2023-01-09T21:11:40.639Z,4.57
2023-01-09T21:14:26.874Z,2.93
2023-01-09T21:17:13.093Z,2.43
2023-01-09T21:20:00.756Z,2.80
2023-01-09T21:22:47.380Z,3.30
2023-01-09T21:25:33.647Z,2.57
2023-01-09T21:28:20.823Z,3.87
2023-01-09T21:31:06.931Z,4.20
2023-01-09T21:33:54.537Z,5.23
2023-01-09T21:36:44.951Z,3.57
2023-01-09T21:39:31.519Z,3.33
2023-01-09T21:42:35.527Z,3.93
2023-01-09T21:45:39.680Z,4.07
2023-01-09T21:48:26.299Z,2.90
2023-01-09T21:51:13.109Z,4.00
2023-01-09T21:54:00.818Z,4.43
2023-01-09T21:56:47.250Z,4.73
2023-01-09T21:59:34.065Z,4.33
2023-01-09T22:02:20.109Z,4.10
2023-01-09T22:05:07.007Z,4.40
2023-01-09T22:07:53.503Z,2.93
2023-01-09T22:10:41.808Z,3.80
2023-01-09T22:13:28.549Z,2.57
2023-01-09T22:16:15.055Z,4.13
2023-01-09T22:19:01.736Z,4.67
2023-01-09T22:21:48.193Z,4.80
2023-01-09T22:24:35.153Z,4.53
2023-01-09T22:27:23.964Z,4.23
2023-01-09T22:30:11.401Z,4.10
2023-01-09T22:32:57.616Z,4.10
2023-01-09T22:35:44.643Z,4.50
2023-01-09T22:38:31.008Z,4.23
2023-01-09T22:41:17.358Z,3.80
2023-01-09T22:44:05.693Z,4.17
2023-01-09T22:46:51.886Z,2.87
2023-01-09T22:49:51.865Z,3.70
2023-01-09T22:52:39.572Z,3.47
2023-01-09T22:55:26.123Z,3.83
2023-01-09T22:58:12.316Z,3.83
2023-01-09T23:00:59.985Z,3.73
2023-01-09T23:03:46.364Z,5.87
2023-01-09T23:06:32.593Z,3.27
2023-01-09T23:09:19.102Z,3.90
2023-01-09T23:12:06.189Z,4.83
2023-01-09T23:14:52.684Z,3.43
2023-01-09T23:17:40.493Z,4.50
2023-01-09T23:20:26.813Z,3.43
2023-01-09T23:23:12.946Z,3.87
2023-01-09T23:26:00.334Z,3.30
2023-01-09T23:28:46.821Z,3.07
2023-01-09T23:31:34.150Z,2.53
2023-01-09T23:34:24.121Z,4.07
2023-01-09T23:37:10.530Z,3.80
2023-01-09T23:39:57.078Z,3.77
2023-01-09T23:43:00.918Z,3.67
2023-01-09T23:45:47.282Z,3.60
2023-01-09T23:48:33.360Z,4.30
2023-01-09T23:51:21.117Z,3.60
2023-01-09T23:54:07.350Z,4.40
2023-01-09T23:56:56.540Z,3.30
2023-01-09T23:59:43.045Z,2.07
